createdAt,value
2018-03-25T00:01:43.558Z,2.71
2018-03-25T00:04:12.041Z,2.62
2018-03-25T00:06:40.443Z,2.38
2018-03-25T00:09:08.831Z,2.39
2018-03-25T00:11:47.192Z,2.42
2018-03-25T00:14:15.616Z,2.33
2018-03-25T00:16:44.142Z,2.32
2018-03-25T00:19:13.384Z,2.21
2018-03-25T00:21:41.756Z,2.26
2018-03-25T00:24:10.518Z,2.22
2018-03-25T00:26:39.675Z,2.01
2018-03-25T00:29:08.201Z,1.96
2018-03-25T00:31:37.360Z,1.98
2018-03-25T00:34:05.788Z,1.96
2018-03-25T00:36:35.032Z,1.91
2018-03-25T00:39:03.429Z,1.97
2018-03-25T00:41:31.836Z,1.74
2018-03-25T00:44:00.992Z,1.74
2018-03-25T00:46:29.397Z,1.64
2018-03-25T00:48:57.775Z,1.62
2018-03-25T00:51:26.967Z,1.46
2018-03-25T00:53:55.394Z,1.59
2018-03-25T00:56:23.828Z,1.65
2018-03-25T00:58:52.219Z,1.65
2018-03-25T01:01:20.646Z,1.46
2018-03-25T01:03:49.819Z,1.65
2018-03-25T01:06:18.980Z,1.84
2018-03-25T01:08:47.372Z,2.03
2018-03-25T01:11:15.852Z,1.98
2018-03-25T01:13:45.060Z,1.88
2018-03-25T01:16:13.426Z,1.87
2018-03-25T01:18:41.842Z,1.82
2018-03-25T01:21:10.985Z,1.75
2018-03-25T01:23:39.377Z,1.62
2018-03-25T01:26:07.771Z,1.52
2018-03-25T01:28:36.188Z,1.52
2018-03-25T01:31:05.308Z,1.57
2018-03-25T01:33:33.730Z,1.90
2018-03-25T01:36:02.347Z,2.02
2018-03-25T01:38:31.538Z,2.28
2018-03-25T01:41:00.005Z,2.52
2018-03-25T01:43:28.401Z,2.78
2018-03-25T01:45:56.788Z,2.75
2018-03-25T01:48:25.992Z,2.51
2018-03-25T01:50:54.389Z,2.20
2018-03-25T01:53:23.012Z,1.94
2018-03-25T01:55:51.408Z,1.73
2018-03-25T01:58:19.838Z,1.56
2018-03-25T02:00:48.307Z,1.38
2018-03-25T02:03:17.446Z,1.47
2018-03-25T02:05:45.935Z,1.51
2018-03-25T02:08:14.426Z,1.43
2018-03-25T02:10:42.835Z,1.58
2018-03-25T02:13:12.068Z,1.55
2018-03-25T02:15:41.244Z,1.37
2018-03-25T02:18:09.694Z,1.36
2018-03-25T02:20:38.081Z,1.40
2018-03-25T02:23:06.537Z,1.42
2018-03-25T02:25:35.030Z,1.47
2018-03-25T02:28:03.416Z,1.46
2018-03-25T02:30:31.827Z,1.33
2018-03-25T02:33:00.400Z,1.29
2018-03-25T02:35:28.789Z,1.12
2018-03-25T02:37:57.920Z,1.15
2018-03-25T02:40:26.466Z,1.22
2018-03-25T02:42:54.968Z,1.09
2018-03-25T02:45:24.141Z,1.08
2018-03-25T02:47:52.540Z,1.10
2018-03-25T02:50:20.920Z,1.02
2018-03-25T02:52:49.318Z,1.04
2018-03-25T02:55:18.531Z,1.05
2018-03-25T02:57:46.927Z,0.87
2018-03-25T03:00:15.296Z,0.72
2018-03-25T03:02:43.800Z,0.77
2018-03-25T03:05:12.289Z,0.57
2018-03-25T03:07:40.759Z,0.44
2018-03-25T03:10:09.240Z,0.41
2018-03-25T03:12:37.681Z,0.40
2018-03-25T03:15:06.201Z,0.37
2018-03-25T03:17:34.687Z,0.42
2018-03-25T03:20:03.080Z,0.27
2018-03-25T03:22:31.495Z,0.19
2018-03-25T03:25:00.695Z,0.22
2018-03-25T03:27:29.818Z,0.09
2018-03-25T03:29:58.264Z,0.07
2018-03-25T03:32:26.679Z,0.03
2018-03-25T03:34:55.856Z,0.09
2018-03-25T03:37:24.235Z,0.09
2018-03-25T03:39:53.124Z,-0.05
2018-03-25T03:42:21.520Z,-0.15
2018-03-25T03:44:49.994Z,-0.05
2018-03-25T03:47:18.391Z,-0.07
2018-03-25T03:49:47.546Z,-0.12
2018-03-25T03:52:16.106Z,-0.21
2018-03-25T03:54:44.516Z,-0.10
2018-03-25T03:57:13.056Z,-0.11
2018-03-25T03:59:41.459Z,-0.17
2018-03-25T04:02:09.954Z,-0.34
2018-03-25T04:04:38.358Z,-0.34
2018-03-25T04:07:06.740Z,-0.25
2018-03-25T04:09:35.128Z,-0.31
2018-03-25T04:12:04.501Z,-0.38
2018-03-25T04:14:32.916Z,-0.46
2018-03-25T04:17:02.131Z,-0.34
2018-03-25T04:19:31.297Z,-0.50
2018-03-25T04:21:59.716Z,-0.46
2018-03-25T04:24:28.918Z,-0.37
2018-03-25T04:26:57.310Z,-0.53
2018-03-25T04:29:26.112Z,-0.42
2018-03-25T04:31:54.515Z,-0.46
2018-03-25T04:34:22.911Z,-0.57
2018-03-25T04:36:51.338Z,-0.49
2018-03-25T04:39:19.844Z,-0.43
2018-03-25T04:41:48.382Z,-0.48
2018-03-25T04:44:16.800Z,-0.47
2018-03-25T04:46:46.000Z,-0.49
2018-03-25T04:49:14.852Z,-0.48
2018-03-25T04:51:43.264Z,-0.47
2018-03-25T04:54:11.651Z,-0.38
2018-03-25T04:56:40.059Z,-0.36
2018-03-25T04:59:08.503Z,-0.52
2018-03-25T05:01:36.926Z,-0.45
2018-03-25T05:04:05.310Z,-0.31
2018-03-25T05:06:33.799Z,-0.27
2018-03-25T05:09:02.208Z,-0.16
2018-03-25T05:11:30.620Z,-0.14
2018-03-25T05:13:59.067Z,-0.15
2018-03-25T05:16:28.293Z,-0.23
2018-03-25T05:18:56.686Z,-0.30
2018-03-25T05:21:25.119Z,-0.33
2018-03-25T05:23:53.494Z,-0.38
2018-03-25T05:26:22.003Z,-0.36
2018-03-25T05:28:51.171Z,-0.34
2018-03-25T05:31:19.572Z,-0.29
2018-03-25T05:33:48.907Z,-0.21
2018-03-25T05:36:17.388Z,-0.14
2018-03-25T05:38:45.895Z,-0.04
2018-03-25T05:41:14.661Z,0.02
2018-03-25T05:43:43.093Z,0.20
2018-03-25T05:46:11.494Z,0.53
2018-03-25T05:48:40.642Z,0.73
2018-03-25T05:51:09.028Z,0.73
2018-03-25T05:53:37.452Z,0.81
2018-03-25T05:56:06.603Z,0.73
2018-03-25T05:58:35.000Z,0.72
2018-03-25T06:01:03.502Z,0.70
2018-03-25T06:03:32.029Z,0.67
2018-03-25T06:06:00.553Z,0.70
2018-03-25T06:08:28.962Z,0.83
2018-03-25T06:10:58.107Z,0.95
2018-03-25T06:13:26.575Z,1.18
2018-03-25T06:15:55.177Z,1.35
2018-03-25T06:18:23.544Z,1.52
2018-03-25T06:20:51.943Z,1.57
2018-03-25T06:23:20.423Z,1.45
2018-03-25T06:25:51.043Z,1.55
2018-03-25T06:28:19.443Z,1.65
2018-03-25T06:30:47.833Z,1.79
2018-03-25T06:33:16.207Z,1.94
2018-03-25T06:35:44.580Z,2.03
2018-03-25T06:38:12.960Z,2.24
2018-03-25T06:40:41.453Z,2.44
2018-03-25T06:43:09.881Z,2.66
2018-03-25T06:45:38.293Z,2.77
2018-03-25T06:48:06.714Z,2.79
2018-03-25T06:50:35.130Z,2.98
2018-03-25T06:53:03.742Z,3.13
2018-03-25T06:55:32.147Z,3.33
2018-03-25T06:58:00.590Z,3.52
2018-03-25T07:00:29.026Z,3.79
2018-03-25T07:02:57.441Z,3.96
2018-03-25T07:05:25.831Z,4.18
2018-03-25T07:07:54.324Z,4.21
2018-03-25T07:10:22.760Z,4.74
2018-03-25T07:12:51.939Z,5.36
2018-03-25T07:15:20.662Z,5.67
2018-03-25T07:17:49.079Z,7.01
2018-03-25T07:20:17.568Z,7.36
2018-03-25T07:22:45.963Z,8.15
2018-03-25T07:25:14.386Z,8.21
2018-03-25T07:27:42.779Z,7.83
2018-03-25T07:30:11.300Z,7.99
2018-03-25T07:32:39.751Z,8.43
2018-03-25T07:35:08.472Z,7.74
2018-03-25T07:37:37.393Z,8.26
2018-03-25T07:40:05.789Z,7.72
2018-03-25T07:42:34.404Z,7.87
2018-03-25T07:45:02.846Z,7.97
2018-03-25T07:47:31.219Z,7.99
2018-03-25T07:49:59.644Z,8.45
2018-03-25T07:52:28.805Z,8.31
2018-03-25T07:54:57.192Z,9.10
2018-03-25T07:57:25.619Z,8.85
2018-03-25T07:59:54.066Z,8.85
2018-03-25T08:02:23.253Z,8.95
2018-03-25T08:04:51.660Z,9.48
2018-03-25T08:07:20.968Z,9.60
2018-03-25T08:09:50.152Z,10.18
2018-03-25T08:12:18.568Z,10.84
2018-03-25T08:14:46.944Z,11.02
2018-03-25T08:17:15.357Z,10.80
2018-03-25T08:19:43.809Z,10.94
2018-03-25T08:22:12.362Z,12.11
2018-03-25T08:24:40.780Z,11.46
2018-03-25T08:27:09.209Z,13.03
2018-03-25T08:29:37.580Z,12.06
2018-03-25T08:32:06.029Z,11.65
2018-03-25T08:34:34.494Z,12.18
2018-03-25T08:37:02.886Z,12.39
2018-03-25T08:39:31.307Z,12.18
2018-03-25T08:41:59.778Z,11.94
2018-03-25T08:44:28.253Z,13.58
2018-03-25T08:46:56.692Z,12.84
2018-03-25T08:49:25.867Z,13.04
2018-03-25T08:51:54.273Z,13.72
2018-03-25T08:54:23.434Z,14.58
2018-03-25T08:56:51.915Z,14.98
2018-03-25T08:59:20.301Z,14.93
2018-03-25T09:01:48.805Z,14.98
2018-03-25T09:04:17.215Z,15.46
2018-03-25T09:06:46.388Z,15.80
2018-03-25T09:09:15.543Z,16.86
2018-03-25T09:11:43.967Z,16.19
2018-03-25T09:14:12.439Z,15.84
2018-03-25T09:16:47.851Z,15.41
2018-03-25T09:19:16.275Z,15.56
2018-03-25T09:21:45.662Z,16.75
2018-03-25T09:24:14.968Z,16.01
2018-03-25T09:26:43.376Z,16.11
2018-03-25T09:29:12.561Z,17.07
2018-03-25T09:31:41.764Z,16.60
2018-03-25T09:34:11.011Z,16.49
2018-03-25T09:36:39.467Z,16.74
2018-03-25T09:39:07.921Z,16.70
2018-03-25T09:41:36.343Z,19.57
2018-03-25T09:44:04.900Z,19.04
2018-03-25T09:46:34.178Z,16.62
2018-03-25T09:49:02.609Z,17.63
2018-03-25T09:51:31.029Z,18.25
2018-03-25T09:53:59.454Z,17.45
2018-03-25T09:56:28.723Z,18.41
2018-03-25T09:59:00.248Z,19.08
2018-03-25T10:04:28.589Z,18.11
2018-03-25T10:06:57.035Z,18.77
2018-03-25T10:09:25.573Z,18.90
2018-03-25T10:11:54.732Z,19.49
2018-03-25T10:14:23.212Z,19.94
2018-03-25T10:16:51.604Z,17.78
2018-03-25T10:19:20.031Z,18.69
2018-03-25T10:21:48.452Z,19.18
2018-03-25T10:24:16.829Z,19.26
2018-03-25T10:26:45.213Z,19.15
2018-03-25T10:29:13.643Z,18.29
2018-03-25T10:31:42.840Z,18.25
2018-03-25T10:34:11.260Z,19.62
2018-03-25T10:36:39.653Z,18.17
2018-03-25T10:39:08.046Z,18.91
2018-03-25T10:41:36.619Z,20.55
2018-03-25T10:44:05.067Z,19.63
2018-03-25T10:46:33.490Z,18.83
2018-03-25T10:49:02.671Z,19.48
2018-03-25T10:51:31.063Z,18.72
2018-03-25T10:53:59.498Z,19.52
2018-03-25T10:56:27.922Z,19.39
2018-03-25T10:58:56.336Z,18.90
2018-03-25T11:01:24.767Z,19.16
2018-03-25T11:03:53.267Z,19.84
2018-03-25T11:06:21.730Z,18.96
2018-03-25T11:08:51.146Z,18.52
2018-03-25T11:11:19.658Z,19.19
2018-03-25T11:13:48.974Z,19.82
2018-03-25T11:16:17.412Z,20.24
2018-03-25T11:18:45.868Z,19.80
2018-03-25T11:21:14.408Z,19.04
2018-03-25T11:23:43.614Z,19.92
2018-03-25T11:26:29.671Z,19.96
2018-03-25T11:28:58.128Z,19.55
2018-03-25T11:31:26.580Z,18.81
2018-03-25T11:33:55.415Z,19.36
2018-03-25T11:36:23.919Z,19.02
2018-03-25T11:38:52.371Z,19.15
2018-03-25T11:41:21.821Z,19.16
2018-03-25T11:43:50.380Z,18.89
2018-03-25T11:46:20.869Z,19.10
2018-03-25T11:48:50.223Z,18.76
2018-03-25T11:51:19.518Z,19.02
2018-03-25T11:53:48.794Z,18.50
2018-03-25T11:56:17.396Z,18.14
2018-03-25T11:58:45.791Z,18.29
2018-03-25T12:01:14.241Z,18.90
2018-03-25T12:03:43.417Z,18.40
2018-03-25T12:06:11.843Z,19.38
2018-03-25T12:08:40.384Z,18.79
2018-03-25T12:11:08.827Z,18.04
2018-03-25T12:13:37.238Z,18.76
2018-03-25T12:16:05.706Z,19.25
2018-03-25T12:18:35.205Z,18.37
2018-03-25T12:21:03.730Z,19.20
2018-03-25T12:23:32.123Z,19.11
2018-03-25T12:26:00.540Z,18.08
2018-03-25T12:28:29.176Z,18.29
2018-03-25T12:30:58.398Z,18.00
2018-03-25T12:33:26.819Z,17.92
2018-03-25T12:35:55.235Z,17.84
2018-03-25T12:38:23.652Z,17.19
2018-03-25T12:40:52.080Z,17.90
2018-03-25T12:43:20.511Z,17.48
2018-03-25T12:45:48.921Z,17.70
2018-03-25T12:48:17.343Z,17.81
2018-03-25T12:50:45.726Z,17.54
2018-03-25T12:53:14.161Z,18.02
2018-03-25T12:55:42.564Z,18.25
2018-03-25T12:58:11.095Z,18.34
2018-03-25T13:00:41.172Z,18.25
2018-03-25T13:03:09.579Z,18.03
2018-03-25T13:05:38.899Z,17.55
2018-03-25T13:08:08.063Z,17.80
2018-03-25T13:10:36.468Z,17.32
2018-03-25T13:13:05.630Z,17.53
2018-03-25T13:15:34.056Z,18.34
2018-03-25T13:18:02.484Z,17.81
2018-03-25T13:20:31.010Z,18.03
2018-03-25T13:23:00.185Z,18.21
2018-03-25T13:25:28.600Z,18.09
2018-03-25T13:27:57.812Z,17.95
2018-03-25T13:30:26.345Z,17.92
2018-03-25T13:32:54.756Z,18.14
2018-03-25T13:35:23.219Z,17.93
2018-03-25T13:37:51.681Z,18.50
2018-03-25T13:40:24.012Z,18.16
2018-03-25T13:42:53.225Z,18.69
2018-03-25T13:45:21.657Z,18.37
2018-03-25T13:47:50.091Z,16.83
2018-03-25T13:50:18.480Z,16.66
2018-03-25T13:52:46.900Z,17.23
2018-03-25T13:55:15.311Z,17.04
2018-03-25T13:57:43.735Z,17.49
2018-03-25T14:00:12.165Z,17.83
2018-03-25T14:02:41.434Z,17.21
2018-03-25T14:05:09.838Z,17.20
2018-03-25T14:07:38.260Z,17.42
2018-03-25T14:10:10.748Z,17.50
2018-03-25T14:12:39.214Z,18.32
2018-03-25T14:15:08.387Z,17.97
2018-03-25T14:17:36.911Z,18.67
2018-03-25T14:20:05.351Z,18.30
2018-03-25T14:22:33.783Z,18.07
2018-03-25T14:25:02.201Z,18.34
2018-03-25T14:27:30.648Z,17.95
2018-03-25T14:29:59.061Z,17.95
2018-03-25T14:32:27.442Z,17.48
2018-03-25T14:34:55.884Z,16.73
2018-03-25T14:37:25.143Z,16.29
2018-03-25T14:39:53.535Z,16.43
2018-03-25T14:42:21.966Z,16.33
2018-03-25T14:44:50.365Z,17.35
2018-03-25T14:47:18.889Z,17.32
2018-03-25T14:49:47.363Z,17.45
2018-03-25T14:52:15.782Z,18.09
2018-03-25T14:54:44.214Z,17.25
2018-03-25T14:57:12.667Z,16.75
2018-03-25T14:59:41.076Z,16.27
2018-03-25T15:02:09.483Z,16.59
2018-03-25T15:04:37.913Z,16.83
2018-03-25T15:07:06.332Z,16.97
2018-03-25T15:09:34.735Z,17.17
2018-03-25T15:12:03.972Z,16.83
2018-03-25T15:14:32.463Z,16.64
2018-03-25T15:17:00.898Z,16.64
2018-03-25T15:19:29.394Z,16.57
2018-03-25T15:21:58.587Z,16.77
2018-03-25T15:24:27.812Z,16.49
2018-03-25T15:26:56.228Z,16.03
2018-03-25T15:29:24.638Z,15.83
2018-03-25T15:31:53.036Z,15.64
2018-03-25T15:34:22.200Z,15.20
2018-03-25T15:36:50.612Z,15.15
2018-03-25T15:39:19.891Z,15.19
2018-03-25T15:41:48.439Z,14.88
2018-03-25T15:44:16.892Z,14.74
2018-03-25T15:46:46.118Z,14.96
2018-03-25T15:49:14.617Z,14.81
2018-03-25T15:51:43.098Z,14.48
2018-03-25T15:54:11.581Z,14.32
2018-03-25T15:56:41.224Z,14.39
2018-03-25T15:59:09.639Z,14.37
2018-03-25T16:01:38.897Z,14.23
2018-03-25T16:04:07.515Z,14.24
2018-03-25T16:06:36.873Z,14.24
2018-03-25T16:09:05.339Z,14.09
2018-03-25T16:11:33.940Z,13.99
2018-03-25T16:14:02.512Z,13.88
2018-03-25T16:16:31.017Z,13.80
2018-03-25T16:18:59.474Z,13.74
2018-03-25T16:21:28.128Z,13.82
2018-03-25T16:23:57.391Z,13.69
2018-03-25T16:26:26.064Z,13.68
2018-03-25T16:28:54.546Z,13.51
2018-03-25T16:31:23.080Z,13.38
2018-03-25T16:33:51.574Z,13.48
2018-03-25T16:36:20.830Z,13.49
2018-03-25T16:38:49.328Z,13.45
2018-03-25T16:41:17.889Z,13.39
2018-03-25T16:50:32.355Z,12.97
2018-03-25T16:53:11.231Z,12.99
2018-03-25T16:55:39.909Z,13.01
2018-03-25T16:58:08.546Z,12.88
2018-03-25T17:00:37.933Z,12.73
2018-03-25T17:03:06.555Z,12.73
2018-03-25T17:05:35.128Z,12.68
2018-03-25T17:08:04.421Z,12.69
2018-03-25T17:10:34.938Z,12.67
2018-03-25T17:13:04.486Z,12.59
2018-03-25T17:15:35.184Z,12.50
2018-03-25T17:18:03.978Z,12.50
2018-03-25T17:20:46.535Z,12.50
2018-03-25T17:23:15.083Z,12.37
2018-03-25T17:25:43.569Z,12.30
2018-03-25T17:28:11.998Z,12.27
2018-03-25T17:30:41.185Z,12.17
2018-03-25T17:33:09.607Z,12.17
2018-03-25T17:35:38.013Z,12.22
2018-03-25T17:38:06.440Z,12.02
2018-03-25T17:40:36.248Z,12.06
2018-03-25T17:43:05.464Z,11.97
2018-03-25T17:45:33.934Z,12.02
2018-03-25T17:48:03.136Z,11.89
2018-03-25T17:50:32.294Z,11.74
2018-03-25T17:53:01.760Z,11.85
2018-03-25T17:55:30.273Z,11.78
2018-03-25T17:57:59.648Z,11.66
2018-03-25T18:00:28.223Z,11.81
2018-03-25T18:02:58.284Z,11.77
2018-03-25T18:05:26.853Z,11.58
2018-03-25T18:07:56.306Z,11.64
2018-03-25T18:10:29.208Z,11.65
2018-03-25T18:13:06.214Z,11.47
2018-03-25T18:15:40.608Z,11.47
2018-03-25T18:18:10.975Z,11.61
2018-03-25T18:20:56.290Z,11.52
2018-03-25T18:23:15.496Z,11.39
2018-03-25T18:25:44.891Z,11.41
2018-03-25T18:33:52.727Z,11.43
2018-03-25T18:36:21.721Z,11.44
2018-03-25T18:38:50.858Z,11.31
2018-03-25T18:41:20.083Z,11.35
2018-03-25T18:43:48.602Z,11.38
2018-03-25T18:46:17.205Z,11.22
2018-03-25T18:48:45.650Z,11.16
2018-03-25T18:51:14.162Z,11.28
2018-03-25T18:53:42.688Z,11.30
2018-03-25T18:56:11.179Z,11.11
2018-03-25T18:58:39.640Z,11.10
2018-03-25T19:01:08.934Z,11.14
2018-03-25T19:03:37.362Z,11.15
2018-03-25T19:06:06.015Z,11.18
2018-03-25T19:08:39.814Z,11.21
2018-03-25T19:11:09.635Z,11.07
2018-03-25T19:13:38.830Z,11.11
2018-03-25T19:16:08.022Z,11.12
2018-03-25T19:18:36.553Z,11.13
2018-03-25T19:21:04.957Z,11.08
2018-03-25T19:23:33.420Z,10.83
2018-03-25T19:26:02.039Z,10.99
2018-03-25T19:28:30.475Z,10.93
2018-03-25T19:30:58.981Z,10.93
2018-03-25T19:33:27.412Z,10.76
2018-03-25T19:35:55.823Z,10.65
2018-03-25T19:38:24.663Z,10.74
2018-03-25T19:40:53.122Z,10.84
2018-03-25T19:43:21.563Z,10.64
2018-03-25T19:45:50.083Z,10.60
2018-03-25T19:48:18.492Z,10.59
2018-03-25T19:50:46.951Z,10.47
2018-03-25T19:53:15.579Z,10.35
2018-03-25T19:55:44.860Z,10.27
2018-03-25T19:58:14.074Z,10.09
2018-03-25T20:00:43.343Z,9.94
2018-03-25T20:03:11.999Z,9.94
2018-03-25T20:05:40.404Z,10.05
2018-03-25T20:08:08.870Z,9.88
2018-03-25T20:10:37.286Z,9.86
2018-03-25T20:13:05.731Z,9.68
2018-03-25T20:15:34.179Z,9.72
2018-03-25T20:18:02.620Z,9.58
2018-03-25T20:20:31.083Z,9.42
2018-03-25T20:22:59.597Z,9.26
2018-03-25T20:25:28.077Z,9.27
2018-03-25T20:27:56.737Z,9.32
2018-03-25T20:30:25.372Z,9.31
2018-03-25T20:32:54.224Z,9.27
2018-03-25T20:35:22.752Z,9.16
2018-03-25T20:37:51.928Z,9.15
2018-03-25T20:40:20.468Z,9.45
2018-03-25T20:42:49.423Z,9.59
2018-03-25T20:45:18.589Z,9.44
2018-03-25T20:47:47.082Z,9.44
2018-03-25T20:50:16.270Z,9.50
2018-03-25T20:52:44.741Z,9.61
2018-03-25T20:55:14.405Z,9.50
2018-03-25T20:57:42.845Z,9.42
2018-03-25T21:00:11.496Z,9.42
2018-03-25T21:02:41.204Z,9.62
2018-03-25T21:05:10.385Z,9.43
2018-03-25T21:07:38.791Z,9.28
2018-03-25T21:10:07.254Z,9.23
2018-03-25T21:12:35.674Z,9.51
2018-03-25T21:15:04.077Z,9.48
2018-03-25T21:17:32.657Z,9.42
2018-03-25T21:20:01.171Z,9.58
2018-03-25T21:22:30.360Z,9.71
2018-03-25T21:24:59.697Z,9.48
2018-03-25T21:27:28.243Z,9.71
2018-03-25T21:29:57.670Z,9.61
2018-03-25T21:32:26.157Z,9.45
2018-03-25T21:34:55.472Z,9.46
2018-03-25T21:37:25.931Z,9.50
2018-03-25T21:39:55.200Z,9.58
2018-03-25T21:42:23.672Z,9.53
2018-03-25T21:44:52.083Z,9.44
2018-03-25T21:47:20.527Z,9.62
2018-03-25T21:49:49.291Z,9.60
2018-03-25T21:52:19.107Z,9.53
2018-03-25T21:54:47.561Z,9.50
2018-03-25T21:57:15.999Z,9.39
2018-03-25T21:59:45.247Z,9.58
2018-03-25T22:02:13.743Z,9.42
2018-03-25T22:04:42.172Z,9.50
2018-03-25T22:07:10.553Z,9.38
2018-03-25T22:09:39.028Z,9.51
2018-03-25T22:12:07.516Z,9.45
2018-03-25T22:14:36.143Z,9.37
2018-03-25T22:17:04.715Z,9.31
2018-03-25T22:19:33.126Z,9.12
2018-03-25T22:22:01.521Z,9.17
2018-03-25T22:24:29.939Z,9.06
2018-03-25T22:26:58.438Z,9.19
2018-03-25T22:29:26.902Z,9.25
2018-03-25T22:31:55.578Z,9.13
2018-03-25T22:34:24.731Z,9.19
2018-03-25T22:36:53.498Z,9.06
2018-03-25T22:39:21.938Z,9.02
2018-03-25T22:41:51.437Z,9.00
2018-03-25T22:44:20.901Z,8.92
2018-03-25T22:46:49.537Z,9.00
2018-03-25T22:49:18.111Z,8.97
2018-03-25T22:51:49.503Z,8.83
2018-03-25T22:54:17.991Z,8.67
2018-03-25T22:56:46.443Z,8.80
2018-03-25T22:59:24.973Z,8.72
2018-03-25T23:01:53.351Z,8.72
2018-03-25T23:04:21.887Z,8.66
2018-03-25T23:06:50.338Z,8.66
2018-03-25T23:09:18.775Z,8.72
2018-03-25T23:11:47.918Z,8.89
2018-03-25T23:14:16.606Z,8.76
2018-03-25T23:16:44.989Z,8.83
2018-03-25T23:19:13.460Z,8.84
2018-03-25T23:21:41.822Z,8.73
2018-03-25T23:24:10.997Z,8.57
2018-03-25T23:26:39.441Z,8.49
2018-03-25T23:29:07.799Z,8.44
2018-03-25T23:31:36.210Z,8.56
2018-03-25T23:34:04.903Z,8.81
2018-03-25T23:36:33.330Z,8.44
2018-03-25T23:39:02.520Z,8.18
2018-03-25T23:41:30.862Z,7.88
2018-03-25T23:43:59.256Z,7.70
2018-03-25T23:46:27.647Z,7.64
2018-03-25T23:48:56.095Z,7.44
2018-03-25T23:51:24.521Z,7.39
2018-03-25T23:53:52.950Z,7.43
2018-03-25T23:56:21.335Z,7.33
2018-03-25T23:58:49.701Z,7.21
